Santa Maria Manuela — CSKO — position and weather

sailwx.info

Track history (hours):
 
Tides and Currents Weather Stations Pressure Air Temp Water Temp Dewpoint Dewpoint Depression Visibility Wind Speed Wind Dir Waves Ship Positions

Santa Maria Manuela

Last reported at 2020-Oct-01 05:30 UTC. Time now 2020-Oct-01 07:52 UTC.
Position N 38°46' W 009°05'.

Length 68 m; draft 4.3 m.

Type: Sailing vessel. MMSI: 255806006.

Date/timePositionNaut miles runAvg speedWind from/ knotsBaromVisibWave heightAir tempDewpointWater temp
2020-Oct-01 05:30N 38°46' W 009°05'0 0.0
2020-Sep-30 22:30N 38°46' W 009°05'0 0.0
2020-Sep-30 21:30N 38°46' W 009°05'0 0.0
2020-Sep-30 15:00N 38°46' W 009°05'0 0.0
2020-Sep-30 13:00N 38°46' W 009°05'0 0.0
2020-Sep-30 10:00N 38°46' W 009°05'0 0.0
2020-Sep-30 06:00N 38°46' W 009°05'0 0.0
2020-Sep-30 05:30N 38°46' W 009°05'0 0.0
2020-Sep-30 05:00N 38°46' W 009°05'0 0.0
2020-Sep-30 03:00N 38°46' W 009°05'0 0.0
2020-Sep-30 02:30N 38°46' W 009°05'0 0.0
2020-Sep-29 23:30N 38°46' W 009°05'0 0.0
2020-Sep-29 17:00N 38°46' W 009°05'0 0.0
2020-Sep-29 16:00N 38°46' W 009°05'0 0.0
2020-Sep-29 14:30N 38°46' W 009°05'0 0.0
2020-Sep-29 14:00N 38°46' W 009°05'0 0.0
2020-Sep-29 13:00N 38°46' W 009°05'0 0.0
2020-Sep-29 11:30N 38°46' W 009°05'0 0.0
2020-Sep-29 10:00N 38°46' W 009°05'0 0.0
2020-Sep-29 07:00N 38°46' W 009°05'0 0.0
2020-Sep-29 05:00N 38°46' W 009°05'0 0.0
2020-Sep-29 04:30N 38°46' W 009°05'0 0.0
2020-Sep-29 00:30N 38°46' W 009°05'0 0.0
2020-Sep-28 22:00N 38°46' W 009°05'0 0.0
2020-Sep-28 20:00N 38°46' W 009°05'0 0.0
2020-Sep-28 19:30N 38°46' W 009°05'0 0.0
2020-Sep-28 18:30N 38°46' W 009°05'0 0.0
2020-Sep-28 17:30N 38°46' W 009°05'0 0.0
2020-Sep-28 17:00N 38°46' W 009°05'0 0.0
2020-Sep-28 16:00N 38°46' W 009°05'0 0.0
2020-Sep-28 14:00N 38°46' W 009°05'0 0.0
2020-Sep-28 12:00N 38°46' W 009°05'0 0.0
2020-Sep-28 11:30N 38°46' W 009°05'0 0.0
2020-Sep-28 11:00N 38°46' W 009°05'0 0.0
2020-Sep-28 10:30N 38°46' W 009°05'5 2.6
2020-Sep-28 08:30N 38°42' W 009°10'5 5.5
2020-Sep-28 07:30N 38°41' W 009°17'15 3.2
2020-Sep-28 03:00N 38°27' W 009°19'5 3.2
2020-Sep-28 01:30N 38°23' W 009°15'1 2.7
2020-Sep-28 01:00N 38°22' W 009°14'7 2.2
2020-Sep-27 21:55N 38°26' W 009°06'0 0.0
2020-Sep-27 19:58N 38°26' W 009°06'0 0.0
2020-Sep-27 18:58N 38°26' W 009°06'0 0.0
2020-Sep-27 16:52N 38°26' W 009°06'0 0.0
2020-Sep-27 13:55N 38°26' W 009°06'0 0.0
2020-Sep-27 12:58N 38°26' W 009°06'0 0.0
2020-Sep-27 09:58N 38°26' W 009°06'0 0.0
2020-Sep-27 07:28N 38°26' W 009°06'0 0.0
2020-Sep-27 02:55N 38°26' W 009°06'0 0.0
2020-Sep-26 22:58N 38°26' W 009°06'0 0.0
2020-Sep-26 21:58N 38°26' W 009°06'0 0.0
2020-Sep-26 18:58N 38°26' W 009°06'0 0.0
2020-Sep-26 14:55N 38°26' W 009°06'0 0.0
2020-Sep-26 10:58N 38°26' W 009°06'0 0.0
2020-Sep-26 09:28N 38°26' W 009°06'0 0.0
2020-Sep-26 07:58N 38°26' W 009°06'0 0.1
2020-Sep-26 07:28N 38°26' W 009°06'0 0.1
2020-Sep-26 06:58N 38°26' W 009°06'0 0.0
2020-Sep-26 06:28N 38°26' W 009°06'0 0.0
2020-Sep-26 05:28N 38°26' W 009°06'0 0.0
2020-Sep-26 00:28N 38°26' W 009°06'0 0.0
2020-Sep-25 23:28N 38°26' W 009°06'0 0.0
2020-Sep-25 20:25N 38°26' W 009°06'0 0.0
2020-Sep-25 19:28N 38°26' W 009°06'0 0.0
2020-Sep-25 14:28N 38°26' W 009°06'0 0.0
2020-Sep-25 13:58N 38°26' W 009°06'0 0.0
2020-Sep-25 13:28N 38°26' W 009°06'6 1.2
2020-Sep-25 08:30N 38°21' W 009°02'1 1.3
2020-Sep-25 07:30N 38°21' W 009°01'1 1.5
2020-Sep-25 07:00N 38°21' W 008°60'1 1.1
2020-Sep-25 06:00N 38°22' W 008°58'3 1.5
2020-Sep-25 04:00N 38°23' W 009°02'13 3.7
2020-Sep-25 00:30N 38°22' W 009°19'20 2.6
2020-Sep-24 17:00N 38°41' W 009°14'8 7.8
2020-Sep-24 16:00N 38°45' W 009°05'0 0.2
2020-Sep-24 15:28N 38°46' W 009°05'0 0.0
2020-Sep-24 13:59N 38°46' W 009°05'0 0.0
2020-Sep-24 07:29N 38°46' W 009°05'0 0.0
2020-Sep-24 06:29N 38°46' W 009°05'0 0.0
2020-Sep-24 05:29N 38°46' W 009°05'0 0.0
2020-Sep-24 02:59N 38°46' W 009°05'0 0.0
2020-Sep-24 02:29N 38°46' W 009°05'0 0.0
2020-Sep-24 01:59N 38°46' W 009°05'0 0.0
2020-Sep-23 21:29N 38°46' W 009°05'0 0.0
2020-Sep-23 19:59N 38°46' W 009°05'0 0.0
2020-Sep-23 19:23N 38°46' W 009°05'0 0.0
2020-Sep-23 18:59N 38°46' W 009°05'0 0.0
2020-Sep-23 14:56N 38°46' W 009°05'0 0.0
2020-Sep-23 13:59N 38°46' W 009°05'0 0.0
2020-Sep-23 11:59N 38°46' W 009°05'0 0.0
2020-Sep-23 10:59N 38°46' W 009°05'0 0.0
2020-Sep-23 10:29N 38°46' W 009°05'0 0.0
2020-Sep-23 01:59N 38°46' W 009°05'0 0.0
2020-Sep-22 22:59N 38°46' W 009°05'0 0.0
2020-Sep-22 16:29N 38°46' W 009°05'0 0.0
2020-Sep-22 15:59N 38°46' W 009°05'0 0.0
2020-Sep-22 15:29N 38°46' W 009°05'0 0.0
2020-Sep-22 11:59N 38°46' W 009°05'0 0.0
2020-Sep-22 10:59N 38°46' W 009°05'0 0.0
2020-Sep-22 09:59N 38°46' W 009°05'0 0.0
2020-Sep-22 09:29N 38°46' W 009°05'0 0.0
2020-Sep-22 07:59N 38°46' W 009°05'0 0.0
2020-Sep-22 07:29N 38°46' W 009°05'0 0.0
2020-Sep-22 06:59N 38°46' W 009°05'0 0.0
2020-Sep-22 04:59N 38°46' W 009°05'0 0.0
2020-Sep-22 03:59N 38°46' W 009°05'0 0.0
2020-Sep-22 03:29N 38°46' W 009°05'0 0.0
2020-Sep-21 22:59N 38°46' W 009°05'0 0.0
2020-Sep-21 21:59N 38°46' W 009°05'0 0.0
2020-Sep-21 21:29N 38°46' W 009°05'0 0.0
2020-Sep-21 20:29N 38°46' W 009°05'0 0.0
2020-Sep-21 17:29N 38°46' W 009°05'0 0.0
2020-Sep-21 15:59N 38°46' W 009°05'0 0.0
2020-Sep-21 13:59N 38°46' W 009°05'0 0.0
2020-Sep-21 10:29N 38°46' W 009°05'0 0.0
2020-Sep-21 08:29N 38°46' W 009°05'0 0.0
2020-Sep-21 07:29N 38°46' W 009°05'  
Track history (hours):
 
Tides and Currents Weather Stations Pressure Air Temp Water Temp Dewpoint Dewpoint Depression Visibility Wind Speed Wind Dir Waves Ship Positions

Santa Maria Manuela

Last reported at 2020-Oct-01 05:30 UTC. Time now 2020-Oct-01 07:52 UTC.
Position N 38°46' W 009°05'.

Length 68 m; draft 4.3 m.

Type: Sailing vessel. MMSI: 255806006.

Date/timePositionNaut miles runAvg speedWind from/ knotsBaromVisibWave heightAir tempDewpointWater temp
2020-Oct-01 05:30N 38°46' W 009°05'0 0.0
2020-Sep-30 22:30N 38°46' W 009°05'0 0.0
2020-Sep-30 21:30N 38°46' W 009°05'0 0.0
2020-Sep-30 15:00N 38°46' W 009°05'0 0.0
2020-Sep-30 13:00N 38°46' W 009°05'0 0.0
2020-Sep-30 10:00N 38°46' W 009°05'0 0.0
2020-Sep-30 06:00N 38°46' W 009°05'0 0.0
2020-Sep-30 05:30N 38°46' W 009°05'0 0.0
2020-Sep-30 05:00N 38°46' W 009°05'0 0.0
2020-Sep-30 03:00N 38°46' W 009°05'0 0.0
2020-Sep-30 02:30N 38°46' W 009°05'0 0.0
2020-Sep-29 23:30N 38°46' W 009°05'0 0.0
2020-Sep-29 17:00N 38°46' W 009°05'0 0.0
2020-Sep-29 16:00N 38°46' W 009°05'0 0.0
2020-Sep-29 14:30N 38°46' W 009°05'0 0.0
2020-Sep-29 14:00N 38°46' W 009°05'0 0.0
2020-Sep-29 13:00N 38°46' W 009°05'0 0.0
2020-Sep-29 11:30N 38°46' W 009°05'0 0.0
2020-Sep-29 10:00N 38°46' W 009°05'0 0.0
2020-Sep-29 07:00N 38°46' W 009°05'0 0.0
2020-Sep-29 05:00N 38°46' W 009°05'0 0.0
2020-Sep-29 04:30N 38°46' W 009°05'0 0.0
2020-Sep-29 00:30N 38°46' W 009°05'0 0.0
2020-Sep-28 22:00N 38°46' W 009°05'0 0.0
2020-Sep-28 20:00N 38°46' W 009°05'0 0.0
2020-Sep-28 19:30N 38°46' W 009°05'0 0.0
2020-Sep-28 18:30N 38°46' W 009°05'0 0.0
2020-Sep-28 17:30N 38°46' W 009°05'0 0.0
2020-Sep-28 17:00N 38°46' W 009°05'0 0.0
2020-Sep-28 16:00N 38°46' W 009°05'0 0.0
2020-Sep-28 14:00N 38°46' W 009°05'0 0.0
2020-Sep-28 12:00N 38°46' W 009°05'0 0.0
2020-Sep-28 11:30N 38°46' W 009°05'0 0.0
2020-Sep-28 11:00N 38°46' W 009°05'0 0.0
2020-Sep-28 10:30N 38°46' W 009°05'5 2.6
2020-Sep-28 08:30N 38°42' W 009°10'5 5.5
2020-Sep-28 07:30N 38°41' W 009°17'15 3.2
2020-Sep-28 03:00N 38°27' W 009°19'5 3.2
2020-Sep-28 01:30N 38°23' W 009°15'1 2.7
2020-Sep-28 01:00N 38°22' W 009°14'7 2.2
2020-Sep-27 21:55N 38°26' W 009°06'0 0.0
2020-Sep-27 19:58N 38°26' W 009°06'0 0.0
2020-Sep-27 18:58N 38°26' W 009°06'0 0.0
2020-Sep-27 16:52N 38°26' W 009°06'0 0.0
2020-Sep-27 13:55N 38°26' W 009°06'0 0.0
2020-Sep-27 12:58N 38°26' W 009°06'0 0.0
2020-Sep-27 09:58N 38°26' W 009°06'0 0.0
2020-Sep-27 07:28N 38°26' W 009°06'0 0.0
2020-Sep-27 02:55N 38°26' W 009°06'0 0.0
2020-Sep-26 22:58N 38°26' W 009°06'0 0.0
2020-Sep-26 21:58N 38°26' W 009°06'0 0.0
2020-Sep-26 18:58N 38°26' W 009°06'0 0.0
2020-Sep-26 14:55N 38°26' W 009°06'0 0.0
2020-Sep-26 10:58N 38°26' W 009°06'0 0.0
2020-Sep-26 09:28N 38°26' W 009°06'0 0.0
2020-Sep-26 07:58N 38°26' W 009°06'0 0.1
2020-Sep-26 07:28N 38°26' W 009°06'0 0.1
2020-Sep-26 06:58N 38°26' W 009°06'0 0.0
2020-Sep-26 06:28N 38°26' W 009°06'0 0.0
2020-Sep-26 05:28N 38°26' W 009°06'0 0.0
2020-Sep-26 00:28N 38°26' W 009°06'0 0.0
2020-Sep-25 23:28N 38°26' W 009°06'0 0.0
2020-Sep-25 20:25N 38°26' W 009°06'0 0.0
2020-Sep-25 19:28N 38°26' W 009°06'0 0.0
2020-Sep-25 14:28N 38°26' W 009°06'0 0.0
2020-Sep-25 13:58N 38°26' W 009°06'0 0.0
2020-Sep-25 13:28N 38°26' W 009°06'6 1.2
2020-Sep-25 08:30N 38°21' W 009°02'1 1.3
2020-Sep-25 07:30N 38°21' W 009°01'1 1.5
2020-Sep-25 07:00N 38°21' W 008°60'1 1.1
2020-Sep-25 06:00N 38°22' W 008°58'3 1.5
2020-Sep-25 04:00N 38°23' W 009°02'13 3.7
2020-Sep-25 00:30N 38°22' W 009°19'20 2.6
2020-Sep-24 17:00N 38°41' W 009°14'8 7.8
2020-Sep-24 16:00N 38°45' W 009°05'0 0.2
2020-Sep-24 15:28N 38°46' W 009°05'0 0.0
2020-Sep-24 13:59N 38°46' W 009°05'0 0.0
2020-Sep-24 07:29N 38°46' W 009°05'0 0.0
2020-Sep-24 06:29N 38°46' W 009°05'0 0.0
2020-Sep-24 05:29N 38°46' W 009°05'0 0.0
2020-Sep-24 02:59N 38°46' W 009°05'0 0.0
2020-Sep-24 02:29N 38°46' W 009°05'0 0.0
2020-Sep-24 01:59N 38°46' W 009°05'0 0.0
2020-Sep-23 21:29N 38°46' W 009°05'0 0.0
2020-Sep-23 19:59N 38°46' W 009°05'0 0.0
2020-Sep-23 19:23N 38°46' W 009°05'0 0.0
2020-Sep-23 18:59N 38°46' W 009°05'0 0.0
2020-Sep-23 14:56N 38°46' W 009°05'0 0.0
2020-Sep-23 13:59N 38°46' W 009°05'0 0.0
2020-Sep-23 11:59N 38°46' W 009°05'0 0.0
2020-Sep-23 10:59N 38°46' W 009°05'0 0.0
2020-Sep-23 10:29N 38°46' W 009°05'0 0.0
2020-Sep-23 01:59N 38°46' W 009°05'0 0.0
2020-Sep-22 22:59N 38°46' W 009°05'0 0.0
2020-Sep-22 16:29N 38°46' W 009°05'0 0.0
2020-Sep-22 15:59N 38°46' W 009°05'0 0.0
2020-Sep-22 15:29N 38°46' W 009°05'0 0.0
2020-Sep-22 11:59N 38°46' W 009°05'0 0.0
2020-Sep-22 10:59N 38°46' W 009°05'0 0.0
2020-Sep-22 09:59N 38°46' W 009°05'0 0.0
2020-Sep-22 09:29N 38°46' W 009°05'0 0.0
2020-Sep-22 07:59N 38°46' W 009°05'0 0.0
2020-Sep-22 07:29N 38°46' W 009°05'0 0.0
2020-Sep-22 06:59N 38°46' W 009°05'0 0.0
2020-Sep-22 04:59N 38°46' W 009°05'0 0.0
2020-Sep-22 03:59N 38°46' W 009°05'0 0.0
2020-Sep-22 03:29N 38°46' W 009°05'0 0.0
2020-Sep-21 22:59N 38°46' W 009°05'0 0.0
2020-Sep-21 21:59N 38°46' W 009°05'0 0.0
2020-Sep-21 21:29N 38°46' W 009°05'0 0.0
2020-Sep-21 20:29N 38°46' W 009°05'0 0.0
2020-Sep-21 17:29N 38°46' W 009°05'0 0.0
2020-Sep-21 15:59N 38°46' W 009°05'0 0.0
2020-Sep-21 13:59N 38°46' W 009°05'0 0.0
2020-Sep-21 10:29N 38°46' W 009°05'0 0.0
2020-Sep-21 08:29N 38°46' W 009°05'0 0.0
2020-Sep-21 07:29N 38°46' W 009°05'  

Dump ship's entire track history